Airfield :
LOGIN :

Register | Disclaimer

   EN    FR    IT 

 










Legend :    VFR   Marginal VFR   IFR   Intensive IFR   Very Intensive IFR
Visi :
Ceiling :
>= 8 km
>= 3000ft
5 to 8 km
1000 to 3000 ft
1500m to 5 km
500 to 1000 ft
800 to 1500m
200 to 500 ft
< 800m
< 200 ft
Symbols :   Thunderstorms  Fog  Heavy snow  Heavy precipitations  Wind > 20 kt
SIGMETs :     Misc.  Thunderstorms  Icing  Turbulence  Mountain Waves  Volcanic Ashes







- Airport Elevation : 1249 ft


ETSN - Neuburg AB

CURRENT METAR :
  • 111720Z 25008KT 9999 FEW014 SCT050 02/M00 Q1021 BLU+

EXPIRED METARs :
  • 111639Z 26010KT 9999 SCT015 BKN037 02/M00 Q1021 BLU FCST CANCEL
  • 111620Z 26010KT 9999 -SN SCT015 BKN040 02/M00 Q1021 BLU BLU TEMPO GRN
  • 111601Z 25008KT 9999 -SN FEW012 BKN017 BKN030 02/00 Q1021 WHT BLU TEMPO GRN
  • 111520Z 26009KT 9999 -SN FEW017 SCT023 BKN040 03/M00 Q1021 BLU BLU TEMPO GRN

TAF TAF ETSN
Valid from the 11 at 15:00 until the 12 at 00:00 UTC


111440Z 1115/1124 26012KT 9999 NSW SCT015 BKN040
TEMPO 1112/1118 27012G22KT 4000 SHSN BKN010TCU
TEMPO 1118/1124 26010KT 5000 -SN BKN015 BY ETGL
No reported NOTAMs for that airfield.



MET'MAP, your aeronautical weather chart ! - Copyright ORBIFLY December 2007 - Disclaimer

ORBIFLY MET'MAP TEAM :

Programming & Development : Alexandra Zaïnal
Concept & Development : Baudouin d'Aumeries
Co-Development & Prog : Marc-Olivier Méhu
Technical & hardware support : Manuel Goepfert

Contact : metmap@orbifly.com




SOURCES & CREDITS :

   NOAA